< VanCam Weather - Nearby METAR Reports

Nearby METAR Reports

 

KPDX - Portland Intl
Distance from station: SW 8.9mi, 14.3km
Updated: 11/23/2017 6:53pm
Few Clouds
Few Clouds
 Wind from WSW
Wind: WSW 5 mph , 7 km/h
Temperature: 48°F , 9°C
Wind Chill: 46°F , 8°C
Dew Point: 45°F , 7°C
Humidity: 87%
Barometer: 30.03 inHg , 1016.9 hPa
Clouds: Few Clouds
Visibility: 10 miles , 16 km
Cloud details: Few Clouds 3000 ft
2017/11/24 02:53 KPDX 240253Z 24004KT 10SM FEW030 09/07 A3003 RMK AO2 SLP168 T00940072 53025
KVUO - Vancouver
Distance from station: W 10.7mi, 17.2km
Updated: 11/23/2017 6:53pm
Clear
Clear
 Wind from calm
Wind: Calm
Temperature: 48°F , 9°C
Dew Point: 45°F , 7°C
Humidity: 87%
Barometer: 30.02 inHg , 1016.6 hPa
Clouds: Clear
Visibility: 10 miles , 16 km
2017/11/24 02:53 KVUO 240253Z AUTO 00000KT 10SM CLR 09/07 A3002 RMK AO2 SLP166 T00940072 53025
 
KTTD - Troutdale
Distance from station: SSE 8.1mi, 13km
Updated: 11/23/2017 6:53pm
Clear
Clear
 Wind from calm
Wind: Calm
Temperature: 52°F , 11°C
Dew Point: 43°F , 6°C
Humidity: 72%
Barometer: 30.02 inHg , 1016.6 hPa
Clouds: Clear
Visibility: 10 miles , 16 km
2017/11/24 02:53 KTTD 240253Z 00000KT 10SM CLR 11/06 A3002 RMK AO2 SLP166 T01060061 53027
KSPB - Scappoose
Distance from station: WSW 21.6mi, 34.8km
Updated: 11/23/2017 6:53pm
Clear
Clear
 Wind from W
Wind: W 5 mph , 7 km/h
Temperature: 43°F , 6°C
Wind Chill: 40°F , 4°C
Dew Point: 43°F , 6°C
Humidity: 100%
Barometer: 30.01 inHg , 1016.3 hPa
Clouds: Clear
Visibility: 10 miles , 16 km
2017/11/24 02:53 KSPB 240253Z AUTO 26004KT 10SM CLR 06/06 A3001 RMK AO2 SLP161 T00610056 53022
 
KHIO - Hillsboro
Distance from station: SW 25.8mi, 41.5km
Updated: 11/23/2017 6:53pm
Few Clouds
Few Clouds
 Wind from E
Wind: E 3 mph , 6 km/h
Temperature: 46°F , 8°C
Dew Point: 43°F , 6°C
Humidity: 87%
Barometer: 30.02 inHg , 1016.6 hPa
Clouds: Few Clouds
Visibility: 10 miles , 16 km
Cloud details: Few Clouds 4600 ft
2017/11/24 02:53 KHIO 240253Z 09003KT 10SM FEW046 08/06 A3002 RMK AO2 SLP164 T00830056 53021
KDLS - The Dalles
Distance from station: E 61.4mi, 98.8km
Updated: 11/23/2017 6:53pm
Clear
Clear
 Wind from calm
Wind: Calm
Temperature: 54°F , 12°C
Dew Point: 45°F , 7°C
Humidity: 72%
Barometer: 29.93 inHg , 1013.5 hPa
Clouds: Clear
Visibility: 10 miles , 16 km
2017/11/24 02:53 KDLS 240253Z AUTO 00000KT 10SM CLR 12/07 A2993 RMK AO2 SLP136 60000 T01170067 53033
 
KAST - Astoria
Distance from station: WNW 77.2mi, 124.2km
Updated: 11/23/2017 6:55pm
Light rain, Overcast
Light rain, Overcast
 Wind from SW
Wind: SW 7 mph , 11 km/h
Temperature: 50°F , 10°C
Wind Chill: 47°F , 8°C
Dew Point: 46°F , 8°C
Humidity: 88%
Barometer: 29.98 inHg , 1015.2 hPa
Summary: Light rain
Clouds: Overcast
Visibility: 9 miles , 14 km
Cloud details: Few Clouds 2300 ft
Mostly cloudy 4300 ft
Overcast 7000 ft
2017/11/24 02:55 KAST 240255Z AUTO 23006KT 9SM -RA FEW023 BKN043 OVC070 10/08 A2998 RMK AO2 RAB36 SLP153 P0002 60002 T01000083 53015
KONP - Newport
Distance from station: SW 106mi, 170.4km
Updated: 11/23/2017 7:35pm
Overcast
Overcast
 Wind from SSW
Wind: SSW 7 mph , 11 km/h
Temperature: 50°F , 10°C
Wind Chill: 47°F , 8°C
Dew Point: 50°F , 10°C
Humidity: 100%
Barometer: 30.08 inHg , 1018.6 hPa
Clouds: Overcast
Visibility: 7 miles , 11 km
Cloud details: Partly cloudy 1900 ft
Partly cloudy 2800 ft
Overcast 4200 ft
2017/11/24 03:35 KONP 240335Z AUTO 21006KT 7SM SCT019 SCT028 OVC042 10/10 A3008 RMK AO2